Time;durP1;ratioP1;P1;durP2;ratioP2;P2;SDS_P1;SDS_P2;PMS_P1;PMS_P2;Temp;Humidity;BMP_temperature;BMP_pressure;BME280_temperature;BME280_humidity;BME280_pressure;Samples;Min_cycle;Max_cycle;Signal;HPM_P1;HPM_P2
2023/07/16 00:02:13;;;;;;;1.13;0.70;;;20.90;77.20;;;;;;5080041;28;20098;-62
2023/07/16 00:04:38;;;;;;;0.68;0.65;;;20.80;77.20;;;;;;5071058;28;20037;-59
2023/07/16 00:07:04;;;;;;;0.70;0.60;;;20.80;76.80;;;;;;5078138;28;20028;-58
2023/07/16 00:09:30;;;;;;;1.95;1.20;;;20.70;76.60;;;;;;5079789;28;20408;-59
2023/07/16 00:11:57;;;;;;;0.43;0.40;;;20.70;76.50;;;;;;5082470;28;20021;-59
2023/07/16 00:14:22;;;;;;;2.30;0.55;;;20.70;76.30;;;;;;5085011;28;20031;-62
2023/07/16 00:16:48;;;;;;;1.65;0.60;;;20.60;76.20;;;;;;5080922;28;20110;-62
2023/07/16 00:19:14;;;;;;;1.27;0.57;;;20.50;76.20;;;;;;5080729;28;20036;-59
2023/07/16 00:21:40;;;;;;;1.20;0.75;;;20.50;76.30;;;;;;5068777;28;20080;-58
2023/07/16 00:24:06;;;;;;;0.65;0.38;;;20.50;76.40;;;;;;5075193;28;20479;-58
2023/07/16 00:26:32;;;;;;;2.60;0.88;;;20.40;76.40;;;;;;5078402;28;20040;-58
2023/07/16 00:28:57;;;;;;;1.27;0.80;;;20.40;76.70;;;;;;5080372;28;20032;-59
2023/07/16 00:31:23;;;;;;;1.70;0.52;;;20.40;76.80;;;;;;5076640;28;20107;-59
2023/07/16 00:33:49;;;;;;;1.10;0.60;;;20.40;76.90;;;;;;5075937;28;20028;-59
2023/07/16 00:36:15;;;;;;;2.92;0.70;;;20.40;76.90;;;;;;5077485;28;20390;-59
2023/07/16 00:38:41;;;;;;;1.25;0.65;;;20.30;77.00;;;;;;5068938;28;20380;-61
2023/07/16 00:41:07;;;;;;;0.65;0.65;;;20.40;77.70;;;;;;5071367;28;20033;-63
2023/07/16 00:43:32;;;;;;;2.25;0.98;;;20.30;77.30;;;;;;5083729;28;20035;-62
2023/07/16 00:45:58;;;;;;;1.60;0.90;;;20.30;77.30;;;;;;5074703;28;20033;-62
2023/07/16 00:48:24;;;;;;;1.00;0.90;;;20.30;77.30;;;;;;5074094;28;20040;-62
2023/07/16 00:50:52;;;;;;;2.15;0.60;;;20.30;77.30;;;;;;5075081;28;20020;-62
2023/07/16 00:53:19;;;;;;;0.75;0.75;;;20.30;77.40;;;;;;5069788;28;20399;-62
2023/07/16 00:55:46;;;;;;;1.05;0.95;;;20.20;78.10;;;;;;5073650;28;20020;-62
2023/07/16 00:58:11;;;;;;;0.73;0.63;;;20.20;77.50;;;;;;5071545;28;20516;-60
2023/07/16 01:00:38;;;;;;;1.05;0.85;;;20.20;77.60;;;;;;5079048;28;20035;-60
2023/07/16 01:03:07;;;;;;;1.15;0.50;;;20.20;77.60;;;;;;5074737;28;20036;-59
2023/07/16 01:06:01;;;;;;;0.63;0.57;;;20.20;77.80;;;;;;5071388;28;20115;-59
2023/07/16 01:08:36;;;;;;;1.27;0.93;;;20.20;77.70;;;;;;5083635;28;20036;-59
2023/07/16 01:11:03;;;;;;;3.15;1.58;;;20.20;77.80;;;;;;5077912;28;20027;-62
2023/07/16 01:13:29;;;;;;;1.38;0.70;;;20.20;77.50;;;;;;5075433;28;20103;-62
2023/07/16 01:15:55;;;;;;;0.80;0.55;;;20.10;77.30;;;;;;5082950;28;20044;-60
2023/07/16 01:18:21;;;;;;;3.45;0.82;;;20.10;77.10;;;;;;5082077;28;20035;-63
2023/07/16 01:20:47;;;;;;;1.55;1.08;;;20.10;76.70;;;;;;5079589;28;20032;-62
2023/07/16 01:23:43;;;;;;;3.03;0.77;;;20.10;76.60;;;;;;5066390;28;20486;-63
2023/07/16 01:26:45;;;;;;;1.98;0.90;;;20.20;76.30;;;;;;5085119;28;20035;-59
2023/07/16 01:29:29;;;;;;;2.30;1.05;;;20.10;76.20;;;;;;5074956;28;20027;-62
2023/07/16 01:31:58;;;;;;;1.33;0.85;;;20.00;76.00;;;;;;5079041;28;20013;-61
2023/07/16 01:34:26;;;;;;;1.08;0.70;;;20.00;75.70;;;;;;5083675;28;20450;-60
2023/07/16 01:36:51;;;;;;;1.10;0.77;;;20.00;75.70;;;;;;5082235;28;20027;-59
2023/07/16 01:39:18;;;;;;;1.42;0.80;;;19.90;75.70;;;;;;5084285;28;20032;-63
2023/07/16 01:41:43;;;;;;;0.98;0.70;;;19.90;75.90;;;;;;5083180;28;20501;-62
2023/07/16 01:44:09;;;;;;;2.15;0.70;;;19.80;75.80;;;;;;5075464;28;20028;-64
2023/07/16 01:46:35;;;;;;;4.47;1.00;;;19.80;75.70;;;;;;5075024;28;20505;-62
2023/07/16 01:49:00;;;;;;;5.15;0.93;;;19.70;75.20;;;;;;5075028;28;20375;-63
2023/07/16 01:51:26;;;;;;;0.93;0.43;;;19.60;75.50;;;;;;5080875;28;20043;-62
2023/07/16 01:53:52;;;;;;;2.85;0.82;;;19.60;75.60;;;;;;5074765;28;20047;-62
2023/07/16 01:56:17;;;;;;;0.85;0.45;;;19.60;75.70;;;;;;5079211;28;20043;-62
2023/07/16 01:58:43;;;;;;;0.75;0.50;;;19.60;75.80;;;;;;5080306;28;20030;-62
2023/07/16 02:01:08;;;;;;;0.88;0.77;;;19.60;75.80;;;;;;5076607;28;20123;-62
2023/07/16 02:03:34;;;;;;;2.60;1.13;;;19.60;75.70;;;;;;5072975;28;20101;-62
2023/07/16 02:06:00;;;;;;;4.03;0.98;;;19.50;75.40;;;;;;5084271;28;20035;-59
2023/07/16 02:08:26;;;;;;;0.80;0.70;;;19.50;75.40;;;;;;5079750;28;20036;-60
2023/07/16 02:10:51;;;;;;;1.35;1.02;;;19.40;75.00;;;;;;5077822;28;20028;-59
2023/07/16 02:13:17;;;;;;;2.72;0.85;;;19.40;74.90;;;;;;5075122;28;20025;-59
2023/07/16 02:15:43;;;;;;;1.38;0.73;;;19.40;74.70;;;;;;5071116;28;20036;-62
2023/07/16 02:18:09;;;;;;;0.65;0.65;;;19.30;74.80;;;;;;5073202;28;20674;-62
2023/07/16 02:20:35;;;;;;;1.75;0.93;;;19.30;74.60;;;;;;5068757;28;20082;-62
2023/07/16 02:23:00;;;;;;;1.83;0.93;;;19.30;74.70;;;;;;5069257;28;20020;-62
2023/07/16 02:25:26;;;;;;;0.77;0.70;;;19.30;74.80;;;;;;5075481;28;20040;-58
2023/07/16 02:27:52;;;;;;;1.52;0.50;;;19.20;74.70;;;;;;5073864;28;20028;-59
2023/07/16 02:30:17;;;;;;;1.13;0.80;;;19.20;74.60;;;;;;5073353;28;20388;-59
2023/07/16 02:32:43;;;;;;;1.42;0.80;;;19.20;74.60;;;;;;5073081;28;20070;-62
2023/07/16 02:35:10;;;;;;;2.10;0.82;;;19.20;74.60;;;;;;5072411;28;20387;-62
2023/07/16 02:37:35;;;;;;;2.90;1.20;;;19.20;74.70;;;;;;5080192;28;20040;-59
2023/07/16 02:40:01;;;;;;;1.02;0.65;;;19.20;74.70;;;;;;5078974;28;20028;-59
2023/07/16 02:42:27;;;;;;;2.10;0.63;;;19.10;74.60;;;;;;5085840;28;20025;-59
2023/07/16 02:44:52;;;;;;;1.75;0.73;;;19.10;75.40;;;;;;5061215;28;20595;-58
2023/07/16 02:47:18;;;;;;;1.52;0.55;;;19.10;74.90;;;;;;5075423;28;20041;-58
2023/07/16 02:49:44;;;;;;;1.25;0.77;;;19.10;75.00;;;;;;5077753;28;20028;-62
2023/07/16 02:52:09;;;;;;;1.75;0.98;;;19.00;75.00;;;;;;5077726;28;20069;-62
2023/07/16 02:54:36;;;;;;;0.80;0.80;;;19.00;75.30;;;;;;5075378;28;20024;-58
2023/07/16 02:57:02;;;;;;;1.05;0.73;;;19.00;75.40;;;;;;5075612;28;20032;-59
2023/07/16 02:59:28;;;;;;;1.40;0.70;;;19.00;75.30;;;;;;5080755;28;20036;-59
2023/07/16 03:01:53;;;;;;;1.15;0.55;;;19.00;75.40;;;;;;5081738;28;20062;-63
2023/07/16 03:04:19;;;;;;;1.65;0.80;;;19.00;75.30;;;;;;5076303;28;20040;-59
2023/07/16 03:06:45;;;;;;;2.17;1.27;;;18.90;75.40;;;;;;5076964;28;20438;-60
2023/07/16 03:09:13;;;;;;;1.10;0.70;;;18.90;75.50;;;;;;5081909;28;20089;-59
2023/07/16 03:11:39;;;;;;;0.95;0.85;;;18.90;75.60;;;;;;5075511;28;20063;-60
2023/07/16 03:14:05;;;;;;;0.73;0.70;;;18.90;75.60;;;;;;5074275;28;20108;-60
2023/07/16 03:16:31;;;;;;;3.13;1.42;;;18.90;75.70;;;;;;5077156;28;20430;-60
2023/07/16 03:18:57;;;;;;;0.50;0.50;;;18.90;75.90;;;;;;5081027;28;20031;-59
2023/07/16 03:21:22;;;;;;;1.27;0.70;;;18.90;75.90;;;;;;5078748;28;20025;-62
2023/07/16 03:23:48;;;;;;;4.88;0.93;;;18.90;76.00;;;;;;5076335;28;20115;-62
2023/07/16 03:26:14;;;;;;;1.40;0.70;;;18.90;76.00;;;;;;5077717;28;20043;-63
2023/07/16 03:28:39;;;;;;;3.17;1.38;;;18.90;76.30;;;;;;5081578;28;20058;-62
2023/07/16 03:31:05;;;;;;;1.90;0.98;;;18.80;76.50;;;;;;5075866;28;20028;-62
2023/07/16 03:33:31;;;;;;;1.15;0.70;;;18.80;76.60;;;;;;5085494;28;20028;-62
2023/07/16 03:35:56;;;;;;;0.55;0.50;;;18.80;76.70;;;;;;5080980;28;20035;-62
2023/07/16 03:38:22;;;;;;;2.13;1.08;;;18.80;77.20;;;;;;5076108;28;20115;-64
2023/07/16 03:40:49;;;;;;;0.93;0.85;;;18.80;77.30;;;;;;5078353;28;20024;-62
2023/07/16 03:43:16;;;;;;;1.80;0.93;;;18.80;77.20;;;;;;5075321;28;20496;-62
2023/07/16 03:45:41;;;;;;;0.65;0.65;;;18.80;77.20;;;;;;5079106;28;20035;-62
2023/07/16 03:48:07;;;;;;;0.75;0.55;;;18.80;77.10;;;;;;5079492;28;20311;-62
2023/07/16 03:50:33;;;;;;;1.83;0.90;;;18.80;77.00;;;;;;5073169;28;20025;-63
2023/07/16 03:52:59;;;;;;;2.83;1.25;;;18.80;76.90;;;;;;5066681;28;20056;-59
2023/07/16 03:55:25;;;;;;;2.28;0.68;;;18.80;76.80;;;;;;5067761;28;20068;-63
2023/07/16 03:57:51;;;;;;;2.17;0.75;;;18.80;76.80;;;;;;5074569;28;20047;-63
2023/07/16 04:00:17;;;;;;;3.10;1.40;;;18.80;76.90;;;;;;5077197;28;20040;-63
2023/07/16 04:02:43;;;;;;;2.47;1.42;;;18.80;76.60;;;;;;5078460;28;20039;-63
2023/07/16 04:05:10;;;;;;;1.30;0.70;;;18.70;76.60;;;;;;5076999;28;20052;-60
2023/07/16 04:07:36;;;;;;;2.03;1.13;;;18.70;76.10;;;;;;5072185;28;20028;-60
2023/07/16 04:10:02;;;;;;;1.60;0.90;;;18.70;76.20;;;;;;5073046;28;20047;-60
2023/07/16 04:12:27;;;;;;;1.00;0.93;;;18.70;76.10;;;;;;5079842;28;20035;-60
2023/07/16 04:14:57;;;;;;;2.33;0.90;;;18.80;76.00;;;;;;5077687;28;20025;-60
2023/07/16 04:17:24;;;;;;;1.33;0.93;;;18.80;76.00;;;;;;5083971;28;20038;-63
2023/07/16 04:19:50;;;;;;;4.32;1.50;;;18.80;75.90;;;;;;5074266;28;20502;-60
2023/07/16 04:22:15;;;;;;;1.65;0.88;;;18.80;75.90;;;;;;5082176;28;20031;-60
2023/07/16 04:24:41;;;;;;;2.95;0.65;;;18.80;76.00;;;;;;5077309;28;20090;-63
2023/07/16 04:27:07;;;;;;;0.60;0.60;;;18.90;76.20;;;;;;5077718;28;20044;-63
2023/07/16 04:29:33;;;;;;;0.82;0.82;;;18.90;76.30;;;;;;5081962;28;20032;-63
2023/07/16 04:31:58;;;;;;;2.20;1.33;;;18.90;76.40;;;;;;5080787;28;20047;-63
2023/07/16 04:34:24;;;;;;;1.85;1.10;;;18.90;76.40;;;;;;5084993;28;20141;-63
2023/07/16 04:36:50;;;;;;;2.78;0.93;;;18.90;76.50;;;;;;5081132;28;20028;-63
2023/07/16 04:39:16;;;;;;;1.55;1.00;;;19.00;76.50;;;;;;5078512;28;20083;-63
2023/07/16 04:41:41;;;;;;;3.53;1.40;;;19.00;76.50;;;;;;5079061;28;20028;-63
2023/07/16 04:44:07;;;;;;;4.25;1.10;;;19.00;76.50;;;;;;5078805;28;20064;-63
2023/07/16 04:46:33;;;;;;;5.72;1.10;;;19.00;76.30;;;;;;5079562;28;20029;-63
2023/07/16 04:48:59;;;;;;;4.18;0.98;;;18.90;75.90;;;;;;5071211;28;20024;-60
2023/07/16 04:51:25;;;;;;;1.30;0.80;;;18.90;75.70;;;;;;5077111;28;20099;-60
2023/07/16 04:53:51;;;;;;;1.40;1.20;;;18.90;75.40;;;;;;5071288;28;20024;-59
2023/07/16 04:56:16;;;;;;;1.15;0.80;;;18.90;73.70;;;;;;5077059;28;20521;-60
2023/07/16 04:58:42;;;;;;;1.73;1.00;;;18.90;73.30;;;;;;5069941;28;20081;-60
2023/07/16 05:01:09;;;;;;;1.92;1.45;;;18.90;73.50;;;;;;5073948;28;20047;-59
2023/07/16 05:03:36;;;;;;;3.28;0.90;;;18.90;73.90;;;;;;5072204;28;20111;-60
2023/07/16 05:06:02;;;;;;;5.60;1.23;;;19.00;72.70;;;;;;5069676;28;20032;-59
2023/07/16 05:08:28;;;;;;;1.45;1.25;;;19.10;72.60;;;;;;5072964;28;20044;-60
2023/07/16 05:10:54;;;;;;;4.20;1.35;;;19.10;72.20;;;;;;5074383;28;20027;-60
2023/07/16 05:13:19;;;;;;;2.50;1.52;;;19.00;72.10;;;;;;5075595;28;20055;-60
2023/07/16 05:15:45;;;;;;;2.25;1.20;;;19.00;71.80;;;;;;5081535;28;20077;-60
2023/07/16 05:18:10;;;;;;;4.72;1.58;;;18.90;72.00;;;;;;5071153;28;20024;-60
2023/07/16 05:20:36;;;;;;;3.45;1.13;;;19.00;71.80;;;;;;5074477;28;20502;-60
2023/07/16 05:23:02;;;;;;;2.25;1.38;;;18.90;71.90;;;;;;5073617;28;20039;-59
2023/07/16 05:25:28;;;;;;;1.55;0.80;;;18.90;71.50;;;;;;5068390;28;20037;-60
2023/07/16 05:27:54;;;;;;;4.45;1.45;;;19.00;71.60;;;;;;5078735;28;20028;-60
2023/07/16 05:30:20;;;;;;;4.15;1.00;;;19.00;71.40;;;;;;5076552;28;20068;-59
2023/07/16 05:32:46;;;;;;;1.10;0.98;;;19.00;71.20;;;;;;5069524;28;20060;-59
2023/07/16 05:35:11;;;;;;;5.75;1.45;;;19.10;71.50;;;;;;5077363;28;20035;-60
2023/07/16 05:37:37;;;;;;;5.63;1.85;;;19.00;70.70;;;;;;5072405;28;20033;-59
2023/07/16 05:40:03;;;;;;;1.42;1.13;;;19.00;70.60;;;;;;5081356;28;20028;-59
2023/07/16 05:42:29;;;;;;;2.28;1.58;;;19.00;70.60;;;;;;5076817;28;20032;-60
2023/07/16 05:44:55;;;;;;;2.92;1.42;;;19.10;70.90;;;;;;5077070;28;20184;-60
2023/07/16 05:47:21;;;;;;;1.45;1.27;;;19.10;70.50;;;;;;5081077;28;20020;-59
2023/07/16 05:49:47;;;;;;;3.05;1.58;;;19.10;70.40;;;;;;5079565;28;20130;-60
2023/07/16 05:52:12;;;;;;;1.75;1.25;;;19.10;70.10;;;;;;5076381;28;20032;-60
2023/07/16 05:54:38;;;;;;;3.55;1.45;;;19.20;69.90;;;;;;5074723;28;20020;-60
2023/07/16 05:57:04;;;;;;;4.40;1.52;;;19.20;69.40;;;;;;5082165;28;20032;-59
2023/07/16 05:59:34;;;;;;;2.47;1.00;;;19.20;69.40;;;;;;5072346;28;20029;-59
2023/07/16 06:02:00;;;;;;;1.73;1.23;;;19.20;69.10;;;;;;5072580;28;20028;-59
2023/07/16 06:04:25;;;;;;;4.50;1.42;;;19.20;69.10;;;;;;5071173;28;20054;-60
2023/07/16 06:06:51;;;;;;;3.38;1.15;;;19.30;68.70;;;;;;5071425;28;20033;-59
2023/07/16 06:09:17;;;;;;;4.90;1.63;;;19.20;68.20;;;;;;5076368;28;20400;-59
2023/07/16 06:11:43;;;;;;;1.77;1.25;;;19.20;67.90;;;;;;5088418;28;20439;-60
2023/07/16 06:14:08;;;;;;;2.60;1.58;;;19.20;68.00;;;;;;5081971;28;20602;-59
2023/07/16 06:16:34;;;;;;;2.85;1.23;;;19.30;67.80;;;;;;5071460;28;20057;-63
2023/07/16 06:19:00;;;;;;;3.08;1.20;;;19.30;67.70;;;;;;5076601;28;20084;-60
2023/07/16 06:21:25;;;;;;;5.30;2.00;;;19.30;67.70;;;;;;5084499;28;20399;-64
2023/07/16 06:23:51;;;;;;;2.95;1.40;;;19.30;67.80;;;;;;5082280;28;20106;-63
2023/07/16 06:26:17;;;;;;;6.40;1.92;;;19.40;67.80;;;;;;5083963;28;20049;-63
2023/07/16 06:28:42;;;;;;;2.25;1.77;;;19.50;67.80;;;;;;5084705;28;20028;-59
2023/07/16 06:31:08;;;;;;;1.95;1.30;;;19.50;67.50;;;;;;5080680;28;20041;-60
2023/07/16 06:33:33;;;;;;;6.07;1.73;;;19.60;67.30;;;;;;5086186;28;20047;-60
2023/07/16 06:35:59;;;;;;;2.65;1.35;;;19.60;66.80;;;;;;5073160;28;20400;-58
2023/07/16 06:38:25;;;;;;;2.03;1.33;;;19.60;66.60;;;;;;5079606;28;20483;-59
2023/07/16 06:40:51;;;;;;;3.33;1.60;;;19.70;66.90;;;;;;5079505;28;20035;-64
2023/07/16 06:43:17;;;;;;;4.43;1.70;;;19.70;66.30;;;;;;5078310;28;20036;-64
2023/07/16 06:45:43;;;;;;;2.47;1.42;;;19.70;66.20;;;;;;5080292;28;20067;-63
2023/07/16 06:48:09;;;;;;;3.25;1.02;;;19.70;66.00;;;;;;5080461;28;20447;-63
2023/07/16 06:50:35;;;;;;;6.25;1.45;;;19.80;66.30;;;;;;5081696;28;20032;-63
2023/07/16 06:53:01;;;;;;;2.38;1.20;;;19.90;66.10;;;;;;5073091;28;20020;-63
2023/07/16 06:55:27;;;;;;;3.67;1.60;;;20.00;66.30;;;;;;5084179;28;20047;-63
2023/07/16 06:57:52;;;;;;;3.90;2.05;;;20.10;66.20;;;;;;5077640;28;20047;-63
2023/07/16 07:00:18;;;;;;;5.30;1.52;;;20.20;66.00;;;;;;5082883;28;20032;-62
2023/07/16 07:02:44;;;;;;;4.50;1.80;;;20.20;65.60;;;;;;5087965;28;20372;-63
2023/07/16 07:05:10;;;;;;;4.35;1.50;;;20.10;65.60;;;;;;5073415;28;20033;-58
2023/07/16 07:07:35;;;;;;;4.43;1.55;;;20.20;65.20;;;;;;5078825;28;20051;-62
2023/07/16 07:10:01;;;;;;;3.40;1.92;;;20.20;65.30;;;;;;5082150;28;20122;-57
2023/07/16 07:12:27;;;;;;;3.47;1.52;;;20.20;64.90;;;;;;5083836;28;20021;-58
2023/07/16 07:14:53;;;;;;;3.42;1.90;;;20.30;65.30;;;;;;5074855;28;20021;-57
2023/07/16 07:17:19;;;;;;;3.97;2.00;;;20.30;64.80;;;;;;5077078;28;20028;-61
2023/07/16 07:19:44;;;;;;;3.25;1.58;;;20.40;64.30;;;;;;5084021;28;20029;-58
2023/07/16 07:22:10;;;;;;;3.75;1.35;;;20.40;64.50;;;;;;5090963;28;20024;-57
2023/07/16 07:24:36;;;;;;;5.05;1.85;;;20.40;64.90;;;;;;5079097;28;20025;-57
2023/07/16 07:27:02;;;;;;;3.47;1.75;;;20.40;64.40;;;;;;5086224;28;20142;-57
2023/07/16 07:29:28;;;;;;;2.67;1.63;;;20.40;65.10;;;;;;5075320;28;20437;-61
2023/07/16 07:31:53;;;;;;;5.40;1.35;;;20.50;65.00;;;;;;5074431;28;20414;-57
2023/07/16 07:34:19;;;;;;;3.53;1.67;;;20.50;64.90;;;;;;5073118;28;20479;-58
2023/07/16 07:36:45;;;;;;;4.03;1.70;;;20.50;64.30;;;;;;5080792;28;20448;-58
2023/07/16 07:39:13;;;;;;;2.80;1.13;;;20.60;64.60;;;;;;5075280;28;20119;-58
2023/07/16 07:41:38;;;;;;;4.80;1.67;;;20.80;64.70;;;;;;5081523;28;20036;-59
2023/07/16 07:44:04;;;;;;;3.78;1.95;;;20.90;64.00;;;;;;5074995;28;20391;-58
2023/07/16 07:46:30;;;;;;;3.30;1.65;;;21.00;63.70;;;;;;5081440;28;20094;-59
2023/07/16 07:48:55;;;;;;;2.42;1.70;;;20.90;63.40;;;;;;5072044;28;20039;-57
2023/07/16 07:51:21;;;;;;;2.20;1.42;;;20.90;63.60;;;;;;5080657;28;20069;-58
2023/07/16 07:53:47;;;;;;;5.00;1.58;;;21.00;63.60;;;;;;5070154;28;20051;-58
2023/07/16 07:56:12;;;;;;;2.63;1.50;;;20.90;63.20;;;;;;5057536;28;20067;-62
2023/07/16 07:58:38;;;;;;;3.58;1.38;;;21.00;63.50;;;;;;5078268;28;20542;-58
2023/07/16 08:01:07;;;;;;;4.57;2.08;;;21.20;63.40;;;;;;5078582;28;20145;-58
2023/07/16 08:03:34;;;;;;;4.55;1.73;;;21.20;62.50;;;;;;5074718;28;20052;-62
2023/07/16 08:06:00;;;;;;;5.60;1.88;;;21.20;62.20;;;;;;5080919;28;20032;-58
2023/07/16 08:08:25;;;;;;;3.80;1.70;;;21.20;62.30;;;;;;5073310;28;20039;-57
2023/07/16 08:10:51;;;;;;;4.65;1.75;;;21.20;62.90;;;;;;5073415;28;20059;-56
2023/07/16 08:13:17;;;;;;;3.33;1.73;;;21.20;62.60;;;;;;5068950;28;20032;-58
2023/07/16 08:15:42;;;;;;;1.85;1.30;;;21.20;62.40;;;;;;5075616;28;20434;-57
2023/07/16 08:18:08;;;;;;;4.03;2.00;;;21.20;62.40;;;;;;5074327;28;20047;-61
2023/07/16 08:20:36;;;;;;;3.38;2.10;;;21.30;62.00;;;;;;5074035;28;20049;-57
2023/07/16 08:23:02;;;;;;;3.45;1.33;;;21.40;62.10;;;;;;5082575;28;20093;-58
2023/07/16 08:25:27;;;;;;;1.67;1.05;;;21.50;62.20;;;;;;5072950;28;20029;-57
2023/07/16 08:27:53;;;;;;;3.60;1.38;;;21.60;61.80;;;;;;5071069;28;20047;-58
2023/07/16 08:30:19;;;;;;;5.32;1.73;;;21.70;61.80;;;;;;5081912;28;20024;-58
2023/07/16 08:32:44;;;;;;;2.38;1.88;;;21.80;61.70;;;;;;5076092;28;20028;-61
2023/07/16 08:35:16;;;;;;;2.80;1.50;;;21.80;61.10;;;;;;5079823;28;20029;-62
2023/07/16 08:37:43;;;;;;;2.13;1.35;;;21.90;61.30;;;;;;5073378;28;20032;-62
2023/07/16 08:40:09;;;;;;;2.88;1.80;;;22.10;61.10;;;;;;5075435;28;20036;-62
2023/07/16 08:42:38;;;;;;;3.33;1.63;;;22.20;61.20;;;;;;5072659;28;20145;-62
2023/07/16 08:45:06;;;;;;;4.22;2.45;;;22.30;61.10;;;;;;5085732;28;20463;-62
2023/07/16 08:47:34;;;;;;;4.32;1.23;;;22.30;60.50;;;;;;5078475;28;20048;-62
2023/07/16 08:50:01;;;;;;;7.40;1.92;;;22.30;60.50;;;;;;5077539;28;20017;-62
2023/07/16 08:52:27;;;;;;;3.25;1.88;;;22.40;60.40;;;;;;5069296;28;20040;-58
2023/07/16 08:54:54;;;;;;;1.80;1.15;;;22.40;60.20;;;;;;5075611;28;20464;-57
2023/07/16 08:57:21;;;;;;;3.53;1.50;;;22.50;60.50;;;;;;5077090;28;20132;-62
2023/07/16 08:59:51;;;;;;;2.70;1.50;;;22.60;60.00;;;;;;5068323;28;20039;-61
2023/07/16 09:02:20;;;;;;;2.85;1.70;;;22.70;59.70;;;;;;5070140;28;20028;-62
2023/07/16 09:04:51;;;;;;;3.00;1.30;;;22.70;59.70;;;;;;5076617;28;20214;-61
2023/07/16 09:07:17;;;;;;;3.73;1.60;;;22.80;60.10;;;;;;5062193;28;20776;-62
2023/07/16 09:09:43;;;;;;;1.50;1.33;;;22.90;58.90;;;;;;5073719;28;20115;-61
2023/07/16 09:12:12;;;;;;;3.38;1.83;;;22.80;58.70;;;;;;5065547;28;20025;-62
2023/07/16 09:14:41;;;;;;;2.90;1.58;;;22.70;58.70;;;;;;5072401;28;20028;-62
2023/07/16 09:17:07;;;;;;;2.47;1.30;;;22.50;58.90;;;;;;5074440;28;20024;-62
2023/07/16 09:19:33;;;;;;;2.40;1.52;;;22.40;59.20;;;;;;5076313;28;20446;-62
2023/07/16 09:21:58;;;;;;;3.47;1.70;;;22.50;58.70;;;;;;5071421;28;20035;-61
2023/07/16 09:24:25;;;;;;;2.20;1.67;;;22.60;58.90;;;;;;5078019;28;20036;-63
2023/07/16 09:26:52;;;;;;;2.47;1.52;;;22.70;58.40;;;;;;5077722;28;20535;-63
2023/07/16 09:29:19;;;;;;;2.45;1.55;;;22.70;58.60;;;;;;5071971;28;20496;-61
2023/07/16 09:32:11;;;;;;;2.63;1.67;;;22.70;58.60;;;;;;5073319;28;20024;-58
2023/07/16 09:34:36;;;;;;;1.70;1.50;;;22.60;58.60;;;;;;5076591;28;20043;-59
2023/07/16 09:37:04;;;;;;;2.42;1.65;;;22.50;58.10;;;;;;5083867;28;20360;-58
2023/07/16 09:39:31;;;;;;;4.38;1.92;;;22.40;57.90;;;;;;5073379;28;20040;-59
2023/07/16 09:41:57;;;;;;;1.65;1.13;;;22.40;58.50;;;;;;5080458;28;20036;-63
2023/07/16 09:44:23;;;;;;;3.55;1.40;;;22.40;59.00;;;;;;5076952;28;20468;-62
2023/07/16 09:46:49;;;;;;;1.70;1.20;;;22.50;59.00;;;;;;5077621;28;20146;-62
2023/07/16 09:49:15;;;;;;;5.85;2.15;;;22.40;59.40;;;;;;5080697;28;20118;-63
2023/07/16 09:51:43;;;;;;;2.03;1.55;;;22.40;59.10;;;;;;5084023;28;20383;-62
2023/07/16 09:54:13;;;;;;;1.98;1.42;;;22.20;58.50;;;;;;5079871;28;20033;-58
2023/07/16 09:56:53;;;;;;;4.72;1.42;;;22.10;59.40;;;;;;5080938;28;20082;-62
2023/07/16 09:59:23;;;;;;;1.92;1.75;;;22.10;60.10;;;;;;5083046;28;20107;-63
2023/07/16 10:01:50;;;;;;;2.55;1.30;;;22.00;59.70;;;;;;5080757;28;20548;-58
2023/07/16 10:04:17;;;;;;;3.30;1.65;;;22.10;59.70;;;;;;5077781;28;20082;-63
2023/07/16 10:06:58;;;;;;;1.95;1.52;;;22.10;59.00;;;;;;5074537;28;20482;-62
2023/07/16 10:09:40;;;;;;;2.13;1.60;;;22.20;59.00;;;;;;5072830;28;20483;-61
2023/07/16 10:12:15;;;;;;;1.52;1.27;;;22.30;59.10;;;;;;5069204;28;20025;-64
2023/07/16 10:14:52;;;;;;;2.80;1.52;;;22.40;58.90;;;;;;5070682;28;20104;-62
2023/07/16 10:17:25;;;;;;;2.97;1.33;;;22.60;58.70;;;;;;5076367;28;20032;-61
2023/07/16 10:20:07;;;;;;;2.15;1.42;;;22.70;58.80;;;;;;5079657;28;20037;-58
2023/07/16 10:22:43;;;;;;;3.47;1.98;;;22.90;58.30;;;;;;5071289;28;20024;-61
2023/07/16 10:25:17;;;;;;;1.83;1.48;;;22.90;57.30;;;;;;5066956;28;20179;-58
2023/07/16 10:27:44;;;;;;;1.75;1.35;;;22.90;58.00;;;;;;5076837;28;20024;-57
2023/07/16 10:30:10;;;;;;;1.20;1.00;;;23.00;57.70;;;;;;5080499;28;20359;-61
2023/07/16 10:32:36;;;;;;;4.30;1.85;;;23.00;57.90;;;;;;5073395;28;20029;-61
2023/07/16 10:35:04;;;;;;;5.80;2.30;;;23.00;57.60;;;;;;5076067;28;20477;-57
2023/07/16 10:37:29;;;;;;;2.78;1.20;;;22.90;57.50;;;;;;5080030;28;20110;-57
2023/07/16 10:39:58;;;;;;;3.95;1.75;;;22.80;58.30;;;;;;5073975;28;20116;-61
2023/07/16 10:42:26;;;;;;;3.50;1.30;;;22.90;58.50;;;;;;5080790;28;20379;-57
2023/07/16 10:44:53;;;;;;;3.75;1.67;;;22.90;58.70;;;;;;5071474;28;20064;-56
2023/07/16 10:47:24;;;;;;;4.32;1.77;;;22.90;58.40;;;;;;5079094;28;20032;-56
2023/07/16 10:49:54;;;;;;;1.95;1.50;;;22.90;57.90;;;;;;5077319;28;20497;-56
2023/07/16 10:52:21;;;;;;;2.33;1.55;;;22.80;58.00;;;;;;5081941;28;20056;-61
2023/07/16 10:54:48;;;;;;;2.95;1.25;;;22.90;58.20;;;;;;5074097;28;20029;-62
2023/07/16 10:57:16;;;;;;;4.00;2.00;;;22.90;57.90;;;;;;5072574;28;20764;-60
2023/07/16 10:59:43;;;;;;;2.45;1.00;;;22.90;58.10;;;;;;5079781;28;20044;-61
2023/07/16 11:02:12;;;;;;;1.27;1.10;;;22.90;58.00;;;;;;5074632;28;20066;-61
2023/07/16 11:04:37;;;;;;;2.38;1.35;;;23.10;58.40;;;;;;5073012;28;20089;-60
2023/07/16 11:07:08;;;;;;;3.67;1.27;;;23.20;57.40;;;;;;5076920;28;20442;-60
2023/07/16 11:09:35;;;;;;;3.33;1.42;;;23.20;57.20;;;;;;5079132;28;20391;-56
2023/07/16 11:12:07;;;;;;;1.40;1.10;;;23.10;57.00;;;;;;5069335;28;20020;-61
2023/07/16 11:14:34;;;;;;;3.25;1.13;;;23.00;57.30;;;;;;5072159;28;20086;-56
2023/07/16 11:17:07;;;;;;;2.75;0.68;;;22.90;57.10;;;;;;5074688;28;20024;-58
2023/07/16 11:19:34;;;;;;;1.70;1.60;;;22.80;57.60;;;;;;5078529;28;20041;-58
2023/07/16 11:22:01;;;;;;;2.85;1.08;;;22.80;57.70;;;;;;5081300;28;20107;-62
2023/07/16 11:24:27;;;;;;;1.23;1.13;;;22.70;57.70;;;;;;5077506;28;20036;-57
2023/07/16 11:26:57;;;;;;;3.70;1.65;;;22.70;57.80;;;;;;5084854;28;20032;-57
2023/07/16 11:29:23;;;;;;;3.20;1.70;;;22.70;57.90;;;;;;5074402;28;20107;-63
2023/07/16 11:31:50;;;;;;;1.95;1.27;;;22.70;57.80;;;;;;5074123;28;20024;-57
2023/07/16 11:34:16;;;;;;;1.40;1.17;;;22.70;58.30;;;;;;5073815;28;20072;-57
2023/07/16 11:36:42;;;;;;;2.67;1.17;;;22.80;58.20;;;;;;5072867;28;20024;-62
2023/07/16 11:39:12;;;;;;;2.03;0.93;;;22.90;58.10;;;;;;5078321;28;20037;-62
2023/07/16 11:41:38;;;;;;;2.55;1.50;;;23.00;58.50;;;;;;5081933;28;20031;-57
2023/07/16 11:44:07;;;;;;;2.83;1.30;;;23.20;58.30;;;;;;5075311;28;20387;-57
2023/07/16 11:46:33;;;;;;;3.53;1.48;;;23.30;58.30;;;;;;5077007;28;20020;-63
2023/07/16 11:49:00;;;;;;;1.98;1.40;;;23.40;58.10;;;;;;5074520;28;20040;-64
2023/07/16 11:51:25;;;;;;;3.40;1.40;;;23.50;58.20;;;;;;5075853;28;20479;-64
2023/07/16 11:53:51;;;;;;;1.48;1.10;;;23.40;57.80;;;;;;5077942;28;20027;-58
2023/07/16 11:56:17;;;;;;;3.33;1.40;;;23.30;58.10;;;;;;5078241;28;20028;-57
2023/07/16 11:58:42;;;;;;;3.20;1.85;;;23.20;58.50;;;;;;5077282;28;20085;-58
2023/07/16 12:01:09;;;;;;;2.08;0.95;;;23.00;58.40;;;;;;5075852;28;20203;-58
2023/07/16 12:03:34;;;;;;;1.27;1.00;;;22.90;58.80;;;;;;5081587;28;20113;-58
2023/07/16 12:06:00;;;;;;;2.00;1.30;;;22.80;59.80;;;;;;5073196;28;20510;-64
2023/07/16 12:08:25;;;;;;;2.92;1.10;;;22.80;60.40;;;;;;5069049;28;20071;-58
2023/07/16 12:10:51;;;;;;;3.92;1.10;;;22.80;60.60;;;;;;5076918;28;20024;-58
2023/07/16 12:13:17;;;;;;;1.50;0.90;;;22.90;60.70;;;;;;5075977;28;20035;-63
2023/07/16 12:15:43;;;;;;;0.98;0.90;;;23.20;60.40;;;;;;5075884;28;20031;-64
2023/07/16 12:18:08;;;;;;;4.25;1.70;;;23.30;60.00;;;;;;5073292;28;20028;-63
2023/07/16 12:20:36;;;;;;;5.55;1.60;;;23.40;59.60;;;;;;5077381;28;20028;-59
2023/07/16 12:23:02;;;;;;;1.48;1.13;;;23.40;58.60;;;;;;5069275;28;20433;-59
2023/07/16 12:25:28;;;;;;;2.53;1.20;;;23.20;58.70;;;;;;5081676;28;20386;-63
2023/07/16 12:27:54;;;;;;;4.07;1.65;;;23.10;59.20;;;;;;5083251;28;20039;-59
2023/07/16 12:30:19;;;;;;;1.73;1.13;;;23.00;59.80;;;;;;5079524;28;20056;-63
2023/07/16 12:32:45;;;;;;;3.10;1.65;;;23.00;60.20;;;;;;5078633;28;20104;-59
2023/07/16 12:35:11;;;;;;;1.92;0.90;;;23.00;60.40;;;;;;5086207;28;20047;-64
2023/07/16 12:37:36;;;;;;;1.88;0.90;;;23.10;60.40;;;;;;5082030;28;20032;-63
2023/07/16 12:40:03;;;;;;;2.22;1.42;;;23.40;60.00;;;;;;5080371;28;20103;-59
2023/07/16 12:42:28;;;;;;;2.83;1.65;;;23.70;59.30;;;;;;5079098;28;20368;-59
2023/07/16 12:44:54;;;;;;;3.28;1.40;;;23.90;58.40;;;;;;5065309;28;20029;-60
2023/07/16 12:47:20;;;;;;;2.05;1.35;;;24.20;57.80;;;;;;5072033;28;20173;-64